Redmond, Oregon
Current Conditions -  °F | °C
As of 5:56 PM on Friday 24 Oct 2014 (Local Time) from KRDM Reporting Station
Moderate Fog Moderate Fog  
Wind Chill: 40°   Ceiling: 100
Heat Index: 46°   Visibility: 0.5mi
Dew Point: 44°   Wind: 13mph
Humidity: 93%   Direction: 310°NW
Pressure: 29.88"   Gusts: NA
Location:  44.27°N, 121.17°W
Report Text: KRDM 250056Z 31011KT 1/2SM FG OVC001 08/07 A2988 RMK AO2 SLP118 T00780067
Loading
Personal Weather Stations






























Interactive Weather Map
Tropical Storm Tracking
New forecast layout! Learn more

10-Day Weather Forecast

Advertisements
Track Severe Weather on mobile